Lawton, North Dakota
Current Conditions -  °F | °C
As of 2:35 AM on Sunday 23 Nov 2014 (Local Time) from KDVL Reporting Station
Broken Clouds Broken Clouds  
Wind Chill: 27°   Ceiling: 12000
Heat Index: 32°   Visibility: 10mi
Dew Point: 25°   Wind: 5mph
Humidity: 75%   Direction: 210°SSW
Pressure: 29.3"   Gusts: NA
Location:  48.3°N, 98.37°W
Report Text: KDVL 230835Z AUTO 21004KT 10SM BKN120 00/M04 A2930 RMK AO1
Loading
Personal Weather Stations






























Interactive Weather Map New forecast layout! Learn more

10-Day Weather Forecast

Advertisements
Track Severe Weather on mobile